Terminal Aerodrome Forecast
Issued by NWS Indianapolis, IN

Home | Current Version | Previous Version | Text Only | Print | Product List | Glossary On
Versions: 1 2 3 4 5 6 7 8 9 10 11 12 13 14 15 16 17 18 19 20 21 22 23 24 25 26
309
FTUS43 KIND 171138
TAFIND
TAF
KIND 171138Z 1712/1818 19007KT P6SM OVC150
     FM171700 22007KT P6SM -RA OVC060
     FM172000 21006KT P6SM VCSH OVC045
     FM180000 19004KT 5SM BR OVC025
     FM180300 20005KT 3SM BR OVC008
     FM181000 22005KT 2SM -DZ BR OVC003
     FM181700 23007KT 5SM BR BKN010=

USA.gov is the U.S. government's official web portal to all federal, state and local government web resources and services.